createdAt,value
2019-02-14T00:01:09.630Z,3.9
2019-02-14T00:04:09.178Z,3.8
2019-02-14T00:07:09.045Z,3.9
2019-02-14T00:10:08.969Z,3.9
2019-02-14T00:13:08.730Z,3.9
2019-02-14T00:16:09.134Z,3.7
2019-02-14T00:19:09.212Z,4.1
2019-02-14T00:22:09.264Z,4
2019-02-14T00:25:08.975Z,3.8
2019-02-14T00:28:08.786Z,3.8
2019-02-14T00:31:09.310Z,3.7
2019-02-14T00:34:09.065Z,3.6
2019-02-14T00:37:09.799Z,3.7
2019-02-14T00:40:08.940Z,3.8
2019-02-14T00:43:09.430Z,3.7
2019-02-14T00:46:10.036Z,3.7
2019-02-14T00:49:08.833Z,3.7
2019-02-14T00:52:09.277Z,3.7
2019-02-14T00:55:09.182Z,3.6
2019-02-14T00:58:08.960Z,3.6
2019-02-14T01:01:10.092Z,3.6
2019-02-14T01:04:09.054Z,3.5
2019-02-14T01:07:09.180Z,3.6
2019-02-14T01:10:09.577Z,3.7
2019-02-14T01:13:09.226Z,3.7
2019-02-14T01:16:09.920Z,3.7
2019-02-14T01:19:09.383Z,3.8
2019-02-14T01:22:10.397Z,3.8
2019-02-14T01:25:09.071Z,3.7
2019-02-14T01:28:08.957Z,3.7
2019-02-14T01:31:09.074Z,3.7
2019-02-14T01:34:09.248Z,3.8
2019-02-14T01:37:09.394Z,3.8
2019-02-14T01:40:09.119Z,3.8
2019-02-14T01:43:09.148Z,3.7
2019-02-14T01:46:10.655Z,3.6
2019-02-14T01:49:08.950Z,3.5
2019-02-14T01:52:09.085Z,3.6
2019-02-14T01:55:09.105Z,3.4
2019-02-14T01:58:08.769Z,3.5
2019-02-14T02:01:08.954Z,3.5
2019-02-14T02:04:08.702Z,3.5
2019-02-14T02:07:09.011Z,3.5
2019-02-14T02:10:08.943Z,3.6
2019-02-14T02:13:08.906Z,3.5
2019-02-14T02:16:09.251Z,3.5
2019-02-14T02:19:08.989Z,3.5
2019-02-14T02:22:09.039Z,3.5
2019-02-14T02:25:09.249Z,3.6
2019-02-14T02:28:08.813Z,3.5
2019-02-14T02:31:09.156Z,3.5
2019-02-14T02:34:09.333Z,3.6
2019-02-14T02:37:10.221Z,3.6
2019-02-14T02:40:09.064Z,3.5
2019-02-14T02:43:09.116Z,3.5
2019-02-14T02:46:08.785Z,3.5
2019-02-14T02:49:10.593Z,3.4
2019-02-14T02:52:09.429Z,3.4
2019-02-14T02:55:08.980Z,3.4
2019-02-14T02:58:09.320Z,3.3
2019-02-14T03:01:08.839Z,3.3
2019-02-14T03:04:09.516Z,3.3
2019-02-14T03:07:09.063Z,3.3
2019-02-14T03:10:09.942Z,3.3
2019-02-14T03:13:09.239Z,3.3
2019-02-14T03:16:09.285Z,3.3
2019-02-14T03:19:09.439Z,3.2
2019-02-14T03:22:09.332Z,3.2
2019-02-14T03:25:09.168Z,3.2
2019-02-14T03:28:09.156Z,3.3
2019-02-14T03:31:10.830Z,3.3
2019-02-14T03:34:09.111Z,3.4
2019-02-14T03:37:09.324Z,3.2
2019-02-14T03:40:09.533Z,3.2
2019-02-14T03:43:10.777Z,3.4
2019-02-14T03:46:09.769Z,3.4
2019-02-14T03:49:09.049Z,3.3
2019-02-14T03:52:09.363Z,3.2
2019-02-14T03:55:09.169Z,3.3
2019-02-14T03:58:08.805Z,3.3
2019-02-14T04:01:09.680Z,3.3
2019-02-14T04:04:09.277Z,3.4
2019-02-14T04:07:09.673Z,3.4
2019-02-14T04:10:08.748Z,3.3
2019-02-14T04:13:09.318Z,3.3
2019-02-14T04:16:09.681Z,3.2
2019-02-14T04:19:09.230Z,3.2
2019-02-14T04:22:08.943Z,3.2
2019-02-14T04:25:08.593Z,3.1
2019-02-14T04:28:09.324Z,3.1
2019-02-14T04:31:08.913Z,3.1
2019-02-14T04:34:09.121Z,3
2019-02-14T04:37:09.465Z,3
2019-02-14T04:40:09.081Z,3.3
2019-02-14T04:43:08.803Z,3.2
2019-02-14T04:46:09.207Z,3.1
2019-02-14T04:49:09.220Z,3.2
2019-02-14T04:52:10.694Z,3
2019-02-14T04:55:08.999Z,3
2019-02-14T04:58:09.599Z,3.1
2019-02-14T05:01:09.415Z,3.1
2019-02-14T05:04:10.762Z,3.1
2019-02-14T05:07:09.436Z,3
2019-02-14T05:10:09.346Z,3
2019-02-14T05:13:09.213Z,3
2019-02-14T05:16:08.797Z,2.9
2019-02-14T05:19:10.821Z,3.1
2019-02-14T05:22:09.816Z,3.1
2019-02-14T05:25:09.032Z,3
2019-02-14T05:28:09.093Z,3.1
2019-02-14T05:31:09.093Z,2.9
2019-02-14T05:34:09.033Z,2.9
2019-02-14T05:37:09.046Z,3
2019-02-14T05:40:09.233Z,3
2019-02-14T05:43:10.039Z,2.9
2019-02-14T05:46:09.187Z,3
2019-02-14T05:49:08.936Z,2.9
2019-02-14T05:52:09.565Z,3
2019-02-14T05:55:08.818Z,3
2019-02-14T05:58:08.996Z,3
2019-02-14T06:01:08.765Z,2.9
2019-02-14T06:04:09.578Z,2.8
2019-02-14T06:07:10.562Z,2.7
2019-02-14T06:10:09.099Z,2.8
2019-02-14T06:13:09.416Z,2.9
2019-02-14T06:16:09.054Z,2.8
2019-02-14T06:19:08.962Z,2.8
2019-02-14T06:22:08.815Z,2.8
2019-02-14T06:25:09.393Z,2.8
2019-02-14T06:28:09.058Z,2.7
2019-02-14T06:31:09.065Z,2.9
2019-02-14T06:34:08.954Z,2.8
2019-02-14T06:37:10.471Z,2.9
2019-02-14T06:40:08.761Z,2.8
2019-02-14T06:43:09.024Z,2.8
2019-02-14T06:46:09.585Z,2.8
2019-02-14T06:49:10.551Z,2.8
2019-02-14T06:52:09.878Z,3
2019-02-14T06:55:08.747Z,2.8
2019-02-14T06:58:09.107Z,3.2
2019-02-14T07:01:08.967Z,3
2019-02-14T07:04:09.329Z,2.8
2019-02-14T07:07:08.984Z,2.8
2019-02-14T07:10:09.507Z,2.8
2019-02-14T07:13:09.659Z,2.8
2019-02-14T07:16:10.693Z,2.9
2019-02-14T07:19:08.765Z,2.8
2019-02-14T07:22:08.936Z,2.8
2019-02-14T07:25:08.741Z,2.8
2019-02-14T07:28:08.839Z,2.7
2019-02-14T07:31:09.113Z,2.8
2019-02-14T07:34:09.667Z,2.9
2019-02-14T07:37:09.473Z,2.9
2019-02-14T07:40:09.689Z,2.9
2019-02-14T07:43:08.782Z,3
2019-02-14T07:46:09.553Z,2.9
2019-02-14T07:49:08.919Z,3
2019-02-14T07:52:09.007Z,2.9
2019-02-14T07:55:12.287Z,2.9
2019-02-14T07:58:08.942Z,3.1
2019-02-14T08:01:09.127Z,3
2019-02-14T08:04:09.067Z,3
2019-02-14T08:07:09.214Z,3.1
2019-02-14T08:10:09.166Z,3.1
2019-02-14T08:13:08.593Z,3.2
2019-02-14T08:16:10.309Z,3.2
2019-02-14T08:19:09.250Z,3.2
2019-02-14T08:22:10.559Z,3.1
2019-02-14T08:25:08.766Z,3.3
2019-02-14T08:28:09.675Z,4.1
2019-02-14T08:31:08.989Z,5.7
2019-02-14T08:34:08.973Z,4.7
2019-02-14T08:37:09.136Z,4
2019-02-14T08:40:08.998Z,3.7
2019-02-14T08:43:09.240Z,3.5
2019-02-14T08:46:09.189Z,3.6
2019-02-14T08:49:08.926Z,3.4
2019-02-14T08:52:08.965Z,3.2
2019-02-14T08:55:10.583Z,3.1
2019-02-14T08:58:08.925Z,3.1
2019-02-14T09:01:08.917Z,3.3
2019-02-14T09:04:09.242Z,3.5
2019-02-14T09:07:08.555Z,3.6
2019-02-14T09:10:08.804Z,3.5
2019-02-14T09:13:17.793Z,3.3
2019-02-14T09:16:08.846Z,4.9
2019-02-14T09:19:08.817Z,4.3
2019-02-14T09:22:10.129Z,10.4
2019-02-14T09:25:08.878Z,6.9
2019-02-14T09:28:08.774Z,5.5
2019-02-14T09:31:09.077Z,4.8
2019-02-14T09:34:10.541Z,4.5
2019-02-14T09:37:08.742Z,3.9
2019-02-14T09:40:09.234Z,3.9
2019-02-14T09:43:09.787Z,4.2
2019-02-14T09:46:09.925Z,3.9
2019-02-14T09:49:08.853Z,3.7
2019-02-14T09:52:08.635Z,3.5
2019-02-14T09:55:08.853Z,3.7
2019-02-14T09:58:10.009Z,3.5
2019-02-14T10:01:09.114Z,3.5
2019-02-14T10:04:08.869Z,3.7
2019-02-14T10:07:08.848Z,3.7
2019-02-14T10:10:09.392Z,3.7
2019-02-14T10:13:09.826Z,3.8
2019-02-14T10:16:08.948Z,3.9
2019-02-14T10:19:08.925Z,3.6
2019-02-14T10:22:08.939Z,3.6
2019-02-14T10:25:08.721Z,3.5
2019-02-14T10:28:08.942Z,3.4
2019-02-14T10:31:08.821Z,3.5
2019-02-14T10:34:10.214Z,3.7
2019-02-14T10:37:08.466Z,4
2019-02-14T10:40:08.529Z,4.2
2019-02-14T10:43:08.995Z,3.9
2019-02-14T10:46:08.817Z,3.8
2019-02-14T10:49:08.409Z,3.6
2019-02-14T10:52:09.188Z,3.5
2019-02-14T10:55:09.089Z,3.9
2019-02-14T10:58:08.866Z,5.2
2019-02-14T11:01:08.824Z,5.4
2019-02-14T11:04:08.846Z,4.6
2019-02-14T11:07:08.778Z,4.8
2019-02-14T11:10:09.471Z,4.8
2019-02-14T11:13:08.806Z,4.3
2019-02-14T11:16:10.222Z,4.1
2019-02-14T11:19:08.810Z,6.2
2019-02-14T11:22:08.542Z,6
2019-02-14T11:25:08.982Z,5.8
2019-02-14T11:28:10.705Z,6.1
2019-02-14T11:31:09.706Z,6.4
2019-02-14T11:34:09.318Z,6.1
2019-02-14T11:37:09.205Z,6.2
2019-02-14T11:40:09.045Z,7.5
2019-02-14T11:43:09.313Z,7.2
2019-02-14T11:46:09.237Z,7
2019-02-14T11:49:09.778Z,7.9
2019-02-14T11:52:09.190Z,7.1
2019-02-14T11:55:09.196Z,8.1
2019-02-14T11:58:09.095Z,7.2
2019-02-14T12:01:09.874Z,7.6
2019-02-14T12:04:08.939Z,7.5
2019-02-14T12:07:08.779Z,6.9
2019-02-14T12:10:14.288Z,6.2
2019-02-14T12:13:09.260Z,6.2
2019-02-14T12:16:10.096Z,6.4
2019-02-14T12:19:08.866Z,6
2019-02-14T12:22:08.784Z,5.3
2019-02-14T12:25:08.867Z,5.3
2019-02-14T12:28:08.574Z,4.9
2019-02-14T12:31:08.831Z,4.8
2019-02-14T12:34:10.442Z,5.5
2019-02-14T12:37:09.778Z,5.9
2019-02-14T12:40:10.406Z,5.4
2019-02-14T12:43:08.891Z,5.5
2019-02-14T12:46:09.007Z,5.5
2019-02-14T12:49:08.904Z,6
2019-02-14T12:52:09.122Z,5.5
2019-02-14T12:55:09.063Z,5.4
2019-02-14T12:58:09.732Z,4.9
2019-02-14T13:01:09.089Z,4.8
2019-02-14T13:04:09.056Z,4.4
2019-02-14T13:07:09.526Z,4.2
2019-02-14T13:10:08.358Z,4.2
2019-02-14T13:13:09.182Z,4.2
2019-02-14T13:16:08.530Z,4.6
2019-02-14T13:19:09.251Z,4.4
2019-02-14T13:22:10.344Z,4.4
2019-02-14T13:25:08.506Z,4.3
2019-02-14T13:28:08.548Z,4.5
2019-02-14T13:31:08.507Z,4.1
2019-02-14T13:34:09.075Z,4
2019-02-14T13:37:08.953Z,3.7
2019-02-14T13:40:09.247Z,4.3
2019-02-14T13:43:10.897Z,4.6
2019-02-14T13:46:09.101Z,4.1
2019-02-14T13:49:09.013Z,4.3
2019-02-14T13:52:08.371Z,4.5
2019-02-14T13:55:09.513Z,4.1
2019-02-14T13:58:09.289Z,3.9
2019-02-14T14:01:08.929Z,3.8
2019-02-14T14:04:08.629Z,3.7
2019-02-14T14:07:09.467Z,3.9
2019-02-14T14:10:08.535Z,3.7
2019-02-14T14:13:09.235Z,3.6
2019-02-14T14:16:10.323Z,3.6
2019-02-14T14:19:09.018Z,6.2
2019-02-14T14:22:10.346Z,8.8
2019-02-14T14:25:08.768Z,8.3
2019-02-14T14:28:08.427Z,7
2019-02-14T14:31:08.613Z,6.1
2019-02-14T14:34:08.781Z,5.8
2019-02-14T14:37:08.920Z,4.8
2019-02-14T14:40:08.752Z,4.7
2019-02-14T14:43:08.971Z,4.2
2019-02-14T14:46:09.916Z,4.4
2019-02-14T14:49:09.720Z,4.9
2019-02-14T14:52:08.677Z,4.2
2019-02-14T14:55:08.961Z,4.6
2019-02-14T14:58:08.901Z,4.7
2019-02-14T15:01:09.101Z,4.8
2019-02-14T15:04:09.237Z,4.5
2019-02-14T15:07:09.083Z,4.2
2019-02-14T15:10:08.605Z,4.1
2019-02-14T15:13:09.298Z,4.3
2019-02-14T15:16:09.310Z,4.2
2019-02-14T15:19:10.481Z,3.8
2019-02-14T15:22:09.396Z,3.9
2019-02-14T15:25:10.543Z,3.9
2019-02-14T15:28:08.707Z,4
2019-02-14T15:31:08.519Z,3.9
2019-02-14T15:34:08.791Z,3.7
2019-02-14T15:37:08.896Z,3.6
2019-02-14T15:40:10.532Z,3.8
2019-02-14T15:43:08.917Z,4.4
2019-02-14T15:46:09.348Z,4.6
2019-02-14T15:49:09.851Z,4.5
2019-02-14T15:52:08.546Z,5.5
2019-02-14T15:55:08.801Z,5.7
2019-02-14T15:58:09.686Z,7.9
2019-02-14T16:01:10.609Z,7.4
2019-02-14T16:04:08.827Z,10.9
2019-02-14T16:07:09.074Z,13.1
2019-02-14T16:10:19.151Z,16.2
2019-02-14T16:13:10.223Z,17.2
2019-02-14T16:16:08.890Z,16.7
2019-02-14T16:19:13.368Z,15.1
2019-02-14T16:22:10.249Z,11.9
2019-02-14T16:25:09.122Z,10.5
2019-02-14T16:28:14.058Z,9.3
2019-02-14T16:31:10.284Z,8.7
2019-02-14T16:34:08.942Z,7.8
2019-02-14T16:37:09.211Z,6.8
2019-02-14T16:40:08.954Z,7.8
2019-02-14T16:43:09.196Z,7.8
2019-02-14T16:46:08.554Z,6.7
2019-02-14T16:49:08.764Z,7.4
2019-02-14T16:52:10.284Z,7.5
2019-02-14T16:55:09.231Z,8
2019-02-14T16:58:09.182Z,6.9
2019-02-14T17:01:08.853Z,6
2019-02-14T17:04:10.322Z,5.7
2019-02-14T17:07:09.084Z,5.5
2019-02-14T17:10:08.555Z,5.6
2019-02-14T17:13:09.380Z,6.4
2019-02-14T17:16:09.186Z,5.8
2019-02-14T17:19:08.531Z,5.6
2019-02-14T17:22:09.008Z,5.3
2019-02-14T17:25:09.617Z,5
2019-02-14T17:28:09.379Z,5.8
2019-02-14T17:31:09.210Z,5.3
2019-02-14T17:34:08.860Z,5.6
2019-02-14T17:37:08.287Z,5.7
2019-02-14T17:40:09.431Z,5.1
2019-02-14T17:43:08.995Z,6.8
2019-02-14T17:46:08.905Z,7.6
2019-02-14T17:49:08.404Z,8
2019-02-14T17:52:10.372Z,8.2
2019-02-14T17:55:08.813Z,9.1
2019-02-14T17:58:08.934Z,6.8
2019-02-14T18:01:08.998Z,8
2019-02-14T18:04:08.534Z,7.8
2019-02-14T18:07:08.578Z,6.6
2019-02-14T18:10:08.988Z,7.6
2019-02-14T18:13:08.432Z,6.6
2019-02-14T18:16:09.295Z,5.6
2019-02-14T18:19:09.257Z,5.4
2019-02-14T18:22:09.020Z,5.3
2019-02-14T18:25:09.740Z,7.1
2019-02-14T18:28:08.395Z,7
2019-02-14T18:31:08.576Z,6.4
2019-02-14T18:34:08.777Z,5.6
2019-02-14T18:37:08.545Z,5.1
2019-02-14T18:40:09.264Z,5.1
2019-02-14T18:43:09.477Z,4.7
2019-02-14T18:46:08.439Z,4.8
2019-02-14T18:49:08.324Z,4.5
2019-02-14T18:52:08.632Z,4.7
2019-02-14T18:55:09.811Z,4.5
2019-02-14T18:58:08.700Z,4.5
2019-02-14T19:01:09.017Z,4.6
2019-02-14T19:04:08.782Z,4.8
2019-02-14T19:07:10.529Z,4.6
2019-02-14T19:10:08.981Z,4.4
2019-02-14T19:13:10.034Z,4.9
2019-02-14T19:16:10.491Z,5.6
2019-02-14T19:19:09.042Z,5.4
2019-02-14T19:22:08.482Z,4.8
2019-02-14T19:25:10.247Z,4.6
2019-02-14T19:28:10.320Z,4.7
2019-02-14T19:31:08.575Z,4.8
2019-02-14T19:34:08.827Z,5
2019-02-14T19:37:10.357Z,6.4
2019-02-14T19:40:09.023Z,6
2019-02-14T19:43:08.956Z,5.1
2019-02-14T19:46:08.930Z,5.4
2019-02-14T19:49:09.149Z,5.5
2019-02-14T19:52:12.388Z,5.5
2019-02-14T19:55:10.422Z,5.3
2019-02-14T19:58:10.228Z,4.9
2019-02-14T20:01:08.550Z,6.1
2019-02-14T20:04:08.688Z,6.8
2019-02-14T20:07:08.951Z,5.5
2019-02-14T20:10:08.920Z,6.1
2019-02-14T20:13:08.847Z,5.4
2019-02-14T20:16:08.347Z,6
2019-02-14T20:19:09.256Z,5.8
2019-02-14T20:22:09.291Z,5.4
2019-02-14T20:25:08.754Z,6.2
2019-02-14T20:28:08.825Z,6.4
2019-02-14T20:31:08.817Z,6.1
2019-02-14T20:34:09.443Z,6.6
2019-02-14T20:37:08.163Z,6.3
2019-02-14T20:40:08.435Z,6.3
2019-02-14T20:43:08.522Z,6.7
2019-02-14T20:46:08.813Z,7.1
2019-02-14T20:49:08.575Z,6.8
2019-02-14T20:52:08.613Z,6.6
2019-02-14T20:55:10.143Z,6.7
2019-02-14T20:58:08.533Z,6.7
2019-02-14T21:01:08.589Z,7.9
2019-02-14T21:04:08.871Z,7
2019-02-14T21:07:09.055Z,6.6
2019-02-14T21:10:08.905Z,6.3
2019-02-14T21:13:08.455Z,6.4
2019-02-14T21:16:08.538Z,5.9
2019-02-14T21:19:10.241Z,7.1
2019-02-14T21:22:19.033Z,6.6
2019-02-14T21:25:09.001Z,6.1
2019-02-14T21:28:09.298Z,5.9
2019-02-14T21:31:10.107Z,5.5
2019-02-14T21:34:08.192Z,6.4
2019-02-14T21:37:09.011Z,6.6
2019-02-14T21:40:09.209Z,6.4
2019-02-14T21:43:09.225Z,6.5
2019-02-14T21:46:09.067Z,6.1
2019-02-14T21:49:08.663Z,5.5
2019-02-14T21:52:08.701Z,5.5
2019-02-14T21:55:09.180Z,5.4
2019-02-14T21:58:09.750Z,5.4
2019-02-14T22:01:09.848Z,5.8
2019-02-14T22:04:08.779Z,5.4
2019-02-14T22:07:09.005Z,6.1
2019-02-14T22:10:08.782Z,5.8
2019-02-14T22:13:08.991Z,5.4
2019-02-14T22:16:09.067Z,5.2
2019-02-14T22:19:08.937Z,5
2019-02-14T22:22:09.816Z,5.5
2019-02-14T22:25:08.813Z,5.8
2019-02-14T22:28:08.605Z,6.1
2019-02-14T22:31:08.444Z,6
2019-02-14T22:34:08.591Z,6.2
2019-02-14T22:37:08.445Z,5.7
2019-02-14T22:40:09.248Z,5.9
2019-02-14T22:43:10.314Z,5.6
2019-02-14T22:46:08.115Z,5.5
2019-02-14T22:49:08.141Z,5.2
2019-02-14T22:52:08.972Z,5.6
2019-02-14T22:55:08.365Z,5.4
2019-02-14T22:58:08.257Z,5.4
2019-02-14T23:01:08.615Z,5.2
2019-02-14T23:04:08.362Z,5.1
2019-02-14T23:07:08.165Z,5
2019-02-14T23:10:09.680Z,5
2019-02-14T23:13:08.796Z,5.1
2019-02-14T23:16:08.584Z,5.9
2019-02-14T23:19:09.319Z,5.4
2019-02-14T23:22:08.993Z,5.6
2019-02-14T23:25:08.523Z,5.3
2019-02-14T23:28:09.261Z,5.2
2019-02-14T23:31:08.359Z,5.1
2019-02-14T23:34:08.318Z,5.3
2019-02-14T23:37:08.248Z,5.4
2019-02-14T23:40:08.486Z,5.3
2019-02-14T23:43:08.829Z,5.5
2019-02-14T23:46:08.494Z,5.5
2019-02-14T23:49:09.689Z,5.3
2019-02-14T23:52:08.941Z,5.2
2019-02-14T23:55:08.688Z,5.1
2019-02-14T23:58:08.714Z,4.9
